KRAL/RAL METAR and TAF weather

Enter ICAO airport designator
Station Type Date Time Source
KRAL METAR 2021/05/14 13:53 UTC NOAA

KRAL 141353Z 21003KT 4SM BR OVC006 14/12 A3000 RMK AO2 SLP147 T01390122


Station Type Date Time Source
KRAL Decoded METAR 2021/05/14 13:53 UTC NOAA

RIVERSIDE MUNICIPAL AIRPORT , CA, United States (KRAL) 33-57N 117-27W 252M
May 14, 2021 - 09:53 AM EDT / 2021.05.14 1353 UTC
Wind: from the SSW (210 degrees) at 3 MPH (3 KT):0
Visibility: 4 mile(s):0
Sky conditions: overcast
Weather: mist
Temperature: 57.0 F (13.9 C)
Dew Point: 54.0 F (12.2 C)
Relative Humidity: 89%
Pressure (altimeter): 30 in. Hg (1015 hPa)
ob: KRAL 141353Z 21003KT 4SM BR OVC006 14/12 A3000 RMK AO2 SLP147 T01390122
cycle: 14

Station Type Date Time Source
KRAL TAF UTC NOAA

Error!

Example: see airport list